Latest Weather Observations for Yeppoon

IDQ60801

Issued at 6:02 pm EST Friday 28 April 2017 (issued every 30 minutes, with the page automatically refreshed every 10 minutes)

About weather observations | Map of weather stations | Latest weather observations for QLD | Other Formats
Station Details ID: 033294 Name: YEPPOON THE ESPLANADE Lat: -23.14 Lon: 150.75 Height: 5.5 m
Data from the previous 72 hours. | See also: Recent months at Yeppoon
Date/Time
EST
Temp
°C
App
Temp
°C
Dew
Point
°C
Rel
Hum
%
Delta-T
°C
Wind Press
QNH
hPa
Press
MSL
hPa
Rain since
9am
mm
Dir  Spd
km/h
Gust
km/h
Spd
kts
Gust
kts
28/06:00pm 17.8 16.3 8.6 55 4.7 SSW 6 7 3 4 1016.1 1016.1 0.0
28/05:30pm 19.6 17.7 7.7 46 6.1 SSW 7 7 4 4 1015.6 1015.6 0.0
28/05:00pm 21.3 18.4 4.4 33 8.2 SSW 9 13 5 7 1015.4 1015.4 0.0
28/04:30pm 22.0 18.2 4.1 31 8.7 SSW 13 19 7 10 1014.9 1014.9 0.0
28/04:00pm 22.0 18.1 3.2 29 9.0 S 13 20 7 11 1014.7 1014.7 0.0
28/03:30pm 22.0 18.0 2.7 28 9.1 SSE 13 19 7 10 1014.6 1014.6 0.0
28/03:00pm 22.4 18.1 3.0 28 9.3 S 15 20 8 11 1014.5 1014.5 0.0
28/02:30pm 22.5 18.3 3.6 29 9.1 SSE 15 26 8 14 1014.4 1014.4 0.0
28/02:00pm 22.3 18.0 3.4 29 9.1 SSE 15 28 8 15 1014.4 1014.4 0.0
28/01:30pm 21.9 17.5 2.6 28 9.1 S 15 24 8 13 1014.6 1014.6 0.0
28/01:00pm 21.7 17.8 3.4 30 8.7 S 13 22 7 12 1015.0 1015.0 0.0
28/12:30pm 21.6 17.4 3.8 31 8.6 S 15 22 8 12 1015.5 1015.5 0.0
28/12:00pm 20.9 15.6 3.2 31 8.4 SSW 20 30 11 16 1015.9 1015.9 0.0
28/11:30am 20.1 14.9 3.8 34 7.8 S 20 30 11 16 1016.6 1016.6 0.0
28/11:00am 19.2 13.9 2.1 32 7.8 SSW 19 30 10 16 1017.1 1017.1 0.0
28/10:30am 19.1 13.0 2.9 34 7.5 SSW 24 35 13 19 1017.6 1017.6 0.0
28/10:00am 18.0 12.2 2.3 35 7.1 SSW 22 32 12 17 1018.1 1018.1 0.0
28/09:30am 17.7 12.0 2.8 37 6.8 SW 22 35 12 19 1018.3 1018.3 0.0
28/09:00am 17.1 11.2 4.1 42 6.1 SSW 24 35 13 19 1018.2 1018.2 0.0
28/08:30am 16.1 10.8 2.9 41 6.0 SSW 20 33 11 18 1018.0 1018.0 0.0
28/08:00am 15.5 11.2 3.3 44 5.5 SW 15 20 8 11 1017.7 1017.7 0.0
28/07:30am 14.8 10.1 3.0 45 5.3 SW 17 24 9 13 1017.4 1017.4 0.0
28/07:00am 13.7 9.0 3.2 49 4.7 SW 17 28 9 15 1017.2 1017.2 0.0
28/06:30am 12.8 8.1 2.9 51 4.4 WSW 17 22 9 12 1017.1 1017.1 0.0
28/06:00am 12.7 7.9 2.8 51 4.3 W 17 20 9 11 1016.9 1016.9 0.0
28/05:30am 12.2 8.3 3.4 55 3.9 W 13 17 7 9 1016.8 1016.8 0.0
28/05:00am 13.0 9.8 2.8 50 4.5 SW 9 15 5 8 1016.4 1016.4 0.0
28/04:30am 12.8 9.1 4.3 56 3.9 SW 13 19 7 10 1016.2 1016.2 0.0
28/04:00am 12.9 11.5 5.3 60 3.5 S 2 9 1 5 1016.4 1016.4 0.0
28/03:30am 13.7 11.1 3.2 49 4.7 S 6 13 3 7 1016.4 1016.4 0.0
28/03:00am 14.2 10.4 3.9 50 4.7 SSW 13 20 7 11 1016.6 1016.6 0.0
28/02:30am 14.7 11.0 4.7 51 4.7 SSW 13 17 7 9 1016.8 1016.8 0.0
28/02:00am 15.3 11.2 4.1 47 5.2 SSW 15 20 8 11 1016.9 1016.9 0.0
28/01:30am 15.6 11.4 5.5 51 4.8 SSW 17 22 9 12 1016.9 1016.9 0.0
28/01:00am 15.3 13.3 6.1 54 4.4 SSW 6 11 3 6 1016.8 1016.8 0.0
28/12:30am 15.8 12.5 6.5 54 4.5 SW 13 19 7 10 1016.7 1016.7 0.0
28/12:00am 15.9 12.5 5.8 51 4.8 SW 13 17 7 9 1016.4 1016.4 0.0
 
Date/Time
EST
Temp
°C
App
Temp
°C
Dew
Point
°C
Rel
Hum
%
Delta-T
°C
Wind Press
QNH
hPa
Press
MSL
hPa
Rain since
9am
mm
Dir  Spd
km/h
Gust
km/h
Spd
kts
Gust
kts
27/11:30pm 15.9 13.1 7.1 56 4.3 SW 11 13 6 7 1016.4 1016.4 0.0
27/11:00pm 16.3 13.8 6.7 53 4.7 SW 9 13 5 7 1016.4 1016.4 0.0
27/10:30pm 16.5 14.2 7.4 55 4.5 SW 9 11 5 6 1016.4 1016.4 0.0
27/10:00pm 16.6 14.9 9.8 64 3.6 SW 9 9 5 5 1016.3 1016.3 0.0
27/09:30pm 17.2 15.3 9.1 59 4.2 SW 9 11 5 6 1016.3 1016.3 0.0
27/09:00pm 17.0 16.1 10.6 66 3.4 SW 6 7 3 4 1016.1 1016.1 0.0
27/08:30pm 17.7 16.3 10.8 64 3.7 SW 9 11 5 6 1016.0 1016.0 0.0
27/08:00pm 17.9 16.7 11.7 67 3.4 SW 9 13 5 7 1015.6 1015.6 0.0
27/07:30pm 18.3 17.0 11.4 64 3.8 SW 9 11 5 6 1015.2 1015.2 0.0
27/07:00pm 19.1 19.6 12.8 67 3.5 SW 2 9 1 5 1014.7 1014.7 0.0
27/06:30pm 20.3 19.7 11.8 58 4.7 SW 6 9 3 5 1014.4 1014.4 0.0
27/06:00pm 20.6 19.9 11.5 56 5.0 SW 6 9 3 5 1014.0 1014.0 0.0
27/05:30pm 21.5 19.2 10.6 50 6.0 SW 13 22 7 12 1013.5 1013.5 0.0
27/05:00pm 22.4 21.2 11.5 50 6.1 SW 9 11 5 6 1013.1 1013.1 0.0
27/04:30pm 22.7 20.6 11.1 48 6.4 SW 13 20 7 11 1012.7 1012.7 0.0
27/04:00pm 23.2 20.2 10.6 45 7.0 SW 17 24 9 13 1012.5 1012.5 0.0
27/03:30pm 23.5 21.0 11.2 46 6.9 SW 15 26 8 14 1012.4 1012.4 0.0
27/03:00pm 23.4 21.1 11.8 48 6.5 SSW 15 22 8 12 1012.5 1012.5 0.0
27/02:30pm 23.7 21.7 12.7 50 6.3 SSW 15 22 8 12 1012.5 1012.5 0.0
27/02:00pm 24.0 23.1 13.8 53 6.0 SSW 11 19 6 10 1012.3 1012.3 0.0
27/01:30pm 24.2 23.0 14.0 53 6.0 SSE 13 20 7 11 1012.4 1012.4 0.0
27/01:00pm 24.2 23.1 14.3 54 5.9 SSE 13 19 7 10 1012.6 1012.6 0.0
27/12:30pm 24.4 23.3 14.2 53 6.0 SSE 13 17 7 9 1012.8 1012.8 0.0
27/12:00pm 24.3 22.9 13.5 51 6.3 SSE 13 20 7 11 1013.2 1013.2 0.0
27/11:30am 24.6 24.0 14.7 54 5.9 S 11 17 6 9 1013.7 1013.7 0.0
27/11:00am 24.7 23.2 14.2 52 6.2 SSE 15 20 8 11 1014.2 1014.2 0.0
27/10:30am 24.7 22.9 13.3 49 6.6 SSE 15 20 8 11 1014.3 1014.3 0.0
27/10:00am 24.6 23.2 13.5 50 6.5 SSE 13 19 7 10 1014.6 1014.6 0.0
27/09:30am 24.7 24.1 14.5 53 6.1 SSW 11 17 6 9 1014.6 1014.6 0.0
27/09:00am 23.9 22.6 13.7 53 6.0 SSW 13 20 7 11 1014.5 1014.5 0.2
27/08:30am 23.1 21.5 13.8 55 5.4 SSW 15 20 8 11 1014.2 1014.2 0.2
27/08:00am 22.8 21.7 14.4 59 4.9 SSW 13 17 7 9 1013.7 1013.7 0.2
27/07:30am 22.1 22.2 15.5 66 3.9 SW 9 15 5 8 1013.5 1013.5 0.2
27/07:00am 21.5 21.9 16.2 72 3.2 WSW 9 17 5 9 1013.1 1013.1 0.2
27/06:30am 21.0 21.6 17.8 82 2.0 WSW 11 15 6 8 1012.9 1012.9 0.2
27/06:00am 20.9 22.3 18.7 87 1.4 WSW 9 11 5 6 1012.5 1012.5 0.2
27/05:30am 21.2 22.7 18.9 87 1.4 WSW 9 13 5 7 1012.2 1012.2 0.2
27/05:00am 21.5 22.3 19.1 86 1.5 WSW 13 15 7 8 1011.9 1011.9 0.2
27/04:30am 21.9 22.3 19.1 84 1.8 W 15 20 8 11 1011.7 1011.7 0.2
27/04:00am 22.0 22.9 19.2 84 1.8 W 13 15 7 8 1011.5 1011.5 0.2
27/03:30am 22.2 23.5 19.2 83 1.9 WSW 11 17 6 9 1011.5 1011.5 0.2
27/03:00am 22.2 23.3 19.6 85 1.7 WSW 13 17 7 9 1011.7 1011.7 0.2
27/02:30am 21.6 23.1 19.7 89 1.2 SW 11 15 6 8 1011.7 1011.7 0.2
27/02:00am 21.6 25.4 20.1 91 1.0 CALM 0 6 0 3 1012.1 1012.1 0.2
27/01:30am 21.1 23.3 19.6 91 1.0 WSW 7 9 4 5 1012.2 1012.2 0.2
27/01:00am 21.2 23.1 19.7 91 1.0 SW 9 11 5 6 1012.5 1012.5 0.2
27/12:30am 21.1 23.5 19.6 91 1.0 SSW 6 9 3 5 1012.7 1012.7 0.2
27/12:00am 20.8 21.3 19.3 91 0.9 SSW 15 20 8 11 1012.8 1012.8 0.2
 
Date/Time
EST
Temp
°C
App
Temp
°C
Dew
Point
°C
Rel
Hum
%
Delta-T
°C
Wind Press
QNH
hPa
Press
MSL
hPa
Rain since
9am
mm
Dir  Spd
km/h
Gust
km/h
Spd
kts
Gust
kts
26/11:30pm 21.1 23.2 19.4 90 1.1 N 7 9 4 5 1012.3 1012.3 0.2
26/11:00pm 21.7 24.8 19.6 88 1.3 N 2 7 1 4 1012.0 1012.0 0.2
26/10:30pm 22.1 24.9 19.6 86 1.6 N 4 7 2 4 1011.9 1011.9 0.2
26/10:00pm 22.4 24.7 19.8 85 1.7 N 7 9 4 5 1012.0 1012.0 0.2
26/09:30pm 22.8 25.5 20.3 86 1.6 N 6 11 3 6 1012.2 1012.2 0.2
26/09:00pm 23.0 25.2 20.3 85 1.7 N 9 11 5 6 1012.3 1012.3 0.2
26/08:30pm 23.1 23.3 20.6 86 1.6 N 20 26 11 14 1011.9 1011.9 0.2
26/08:00pm 23.5 23.4 20.8 85 1.8 N 22 26 12 14 1011.6 1011.6 0.2
26/07:30pm 24.0 24.2 21.3 85 1.8 N 22 24 12 13 1011.7 1011.7 0.2
26/07:00pm 24.1 24.6 21.2 84 1.9 N 20 24 11 13 1011.4 1011.4 0.2
26/06:30pm 24.3 24.1 21.2 83 2.0 N 24 28 13 15 1011.0 1011.0 0.2
26/06:00pm 24.4 24.0 20.9 81 2.3 N 24 30 13 16 1010.5 1010.5 0.2
26/05:30pm 24.7 23.3 21.2 81 2.3 NNE 30 35 16 19 1010.1 1010.1 0.2
26/05:00pm 25.0 23.9 21.1 79 2.6 NNE 28 32 15 17 1010.4 1010.4 0.2
26/04:30pm 25.2 24.8 20.9 77 2.8 NNE 24 30 13 16 1010.5 1010.5 0.2
26/04:00pm 25.5 24.5 21.2 77 2.8 NNE 28 30 15 16 1010.5 1010.5 0.2
26/03:30pm 25.7 25.3 20.9 75 3.2 NNE 24 28 13 15 1010.4 1010.4 0.2
26/03:00pm 25.8 25.6 20.6 73 3.4 NNE 22 26 12 14 1010.5 1010.5 0.2
26/02:30pm 26.1 25.9 21.3 75 3.2 NNE 24 28 13 15 1010.7 1010.7 0.2
26/02:00pm 26.5 27.1 21.3 73 3.5 NNE 20 24 11 13 1010.9 1010.9 0.2
26/01:30pm 26.3 27.9 21.5 75 3.2 NE 15 19 8 10 1011.3 1011.3 0.2
26/01:00pm 26.4 27.6 20.7 71 3.7 NE 15 19 8 10 1011.9 1011.9 0.2
26/12:30pm 25.9 27.0 20.5 72 3.5 ENE 15 17 8 9 1012.6 1012.6 0.2
26/12:00pm 25.7 26.6 20.9 75 3.2 NE 17 19 9 10 1013.1 1013.1 0.2
26/11:30am 25.4 26.6 20.6 75 3.1 NE 15 19 8 10 1013.8 1013.8 0.2
26/11:00am 25.5 27.6 21.0 76 3.0 NE 11 13 6 7 1014.4 1014.4 0.2
26/10:30am 25.7 28.4 20.3 72 3.5 WNW 6 11 3 6 1014.9 1014.9 0.2
26/10:00am 25.2 27.4 20.5 75 3.1 W 9 13 5 7 1015.0 1015.0 0.2
26/09:30am 24.3 26.9 21.2 83 2.0 W 9 13 5 7 1015.1 1015.1 0.0
26/09:00am 22.2 24.1 20.5 90 1.1 W 11 15 6 8 1015.3 1015.3 0.0
26/08:30am 20.9 22.1 19.9 94 0.6 W 13 17 7 9 1015.5 1015.5 0.0
26/08:00am 20.0 21.3 19.3 96 0.4 WSW 11 15 6 8 1015.2 1015.2 0.0
26/07:30am 19.2 20.1 18.5 96 0.4 WSW 11 15 6 8 1015.0 1015.0 0.0
26/07:00am 18.7 19.8 18.0 96 0.4 WSW 9 13 5 7 1014.7 1014.7 0.0
26/06:30am 18.3 19.3 17.7 96 0.4 W 9 13 5 7 1014.5 1014.5 0.0
26/06:00am 18.6 19.7 17.9 96 0.4 W 9 13 5 7 1014.1 1014.1 0.0
26/05:30am 18.6 18.9 17.9 96 0.4 W 13 17 7 9 1014.2 1014.2 0.0
26/05:00am 18.4 18.7 17.8 96 0.4 W 13 15 7 8 1014.1 1014.1 0.0
26/04:30am 18.4 19.4 17.8 96 0.4 W 9 13 5 7 1014.0 1014.0 0.0
26/04:00am 18.4 19.3 17.6 95 0.5 W 9 11 5 6 1014.1 1014.1 0.0
26/03:30am 18.3 18.4 17.5 95 0.5 W 13 17 7 9 1014.3 1014.3 0.0
26/03:00am 18.5 18.7 17.7 95 0.5 W 13 15 7 8 1014.4 1014.4 0.0
26/02:30am 19.2 20.9 18.4 95 0.5 W 7 13 4 7 1014.5 1014.5 0.0
26/02:00am 18.8 19.4 17.8 94 0.6 WNW 11 15 6 8 1014.6 1014.6 0.0
26/01:30am 19.0 19.6 17.8 93 0.7 WNW 11 13 6 7 1014.8 1014.8 0.0
26/01:00am 19.4 21.0 18.2 93 0.7 E 7 9 4 5 1014.8 1014.8 0.0
26/12:30am 19.8 21.2 18.6 93 0.7 E 9 11 5 6 1014.9 1014.9 0.0
26/12:00am 20.1 21.9 18.8 92 0.8 E 7 7 4 4 1015.3 1015.3 0.0
 
Date/Time
EST
Temp
°C
App
Temp
°C
Dew
Point
°C
Rel
Hum
%
Delta-T
°C
Wind Press
QNH
hPa
Press
MSL
hPa
Rain since
9am
mm
Dir  Spd
km/h
Gust
km/h
Spd
kts
Gust
kts
25/11:30pm 20.3 21.8 19.0 92 0.8 E 9 11 5 6 1015.6 1015.6 0.0
25/11:00pm 20.8 22.6 19.5 92 0.8 E 9 9 5 5 1015.8 1015.8 0.0
25/10:30pm 21.0 23.2 19.5 91 1.0 E 7 9 4 5 1015.8 1015.8 0.0
25/10:00pm 21.1 23.5 19.6 91 1.0 E 6 7 3 4 1015.7 1015.7 0.0
25/09:30pm 21.1 23.4 19.4 90 1.1 E 6 7 3 4 1015.9 1015.9 0.0
25/09:00pm 21.3 24.4 19.6 90 1.1 E 2 9 1 5 1016.1 1016.1 0.0
25/08:30pm 21.7 25.2 19.6 88 1.3 CALM 0 0 0 0 1016.4 1016.4 0.0
25/08:00pm 22.6 25.8 19.8 84 1.8 E 2 7 1 4 1016.6 1016.6 0.0
25/07:30pm 23.8 25.8 20.7 83 2.0 E 11 13 6 7 1016.2 1016.2 0.0
25/07:00pm 23.8 24.9 20.5 82 2.1 E 15 17 8 9 1015.5 1015.5 0.0
25/06:30pm 24.0 25.4 20.3 80 2.4 ESE 13 17 7 9 1015.3 1015.3 0.0

Other Formats:

Comma delimited format used in spreadsheet applications
http://www.bom.gov.au/fwo/IDQ60801/IDQ60801.94373.axf

JavaScript Object Notation format (JSON) in row-major order
http://www.bom.gov.au/fwo/IDQ60801/IDQ60801.94373.json